Sch-135 Galibier — PBIB — position and weather

sailwx.info

Track history (hours):
 
Tides and Currents Weather Stations Pressure Air Temp Water Temp Dewpoint Dewpoint Depression Visibility Wind Speed Wind Dir Waves Ship Positions

Sch-135 Galibier

Last reported at 2017-Mar-22 22:22 UTC. Time now 2017-Mar-23 10:23 UTC.
Position N 50°07' E 000°13'.

Length 35 m; draft 4.2 m.

Type: Fishing. MMSI: 244630637.

Date/timePositionNaut miles runAvg speedWind from/ knotsBaromVisibWave heightAir tempDewpointWater temp
2017-Mar-22 22:22N 50°07' E 000°13'5 6.1
2017-Mar-22 21:34N 50°04' E 000°07'6 6.3
2017-Mar-22 20:33N 50°00' W 000°01'7 6.7
2017-Mar-22 19:33N 49°56' W 000°10'7 6.9
2017-Mar-22 18:34N 49°53' W 000°19'5 4.8
2017-Mar-22 17:34N 49°50' W 000°24'1 0.7
2017-Mar-22 16:34N 49°49' W 000°25'2 2.0
2017-Mar-22 15:33N 49°48' W 000°28'5 5.0
2017-Mar-22 14:33N 49°53' W 000°24'1 0.5
2017-Mar-22 13:33N 49°53' W 000°25'7 7.1
2017-Mar-22 12:33N 49°59' W 000°30'1 1.2
2017-Mar-22 11:34N 49°58' W 000°29'2 1.9
2017-Mar-22 10:33N 50°00' W 000°30'1 1.3
2017-Mar-22 09:33N 50°01' W 000°29'2 2.0
2017-Mar-22 08:33N 49°60' W 000°27'1 1.0
2017-Mar-22 07:33N 50°01' W 000°28'2 2.1
2017-Mar-22 06:34N 50°01' W 000°31'2 1.6
2017-Mar-22 05:34N 49°59' W 000°31'1 1.0
2017-Mar-22 04:34N 49°60' W 000°31'6 5.9
2017-Mar-22 03:33N 50°03' W 000°23'7 7.1
2017-Mar-22 02:34N 50°05' W 000°13'6 6.1
2017-Mar-22 01:33N 50°08' W 000°04'6 6.4
2017-Mar-22 00:34N 50°10' E 000°05'7 7.1
2017-Mar-21 23:32N 50°13' E 000°16'  
2017-Mar-16 20:20N 50°44' E 001°35'12 0.6
2017-Mar-16 01:08N 50°33' E 001°25'6 8.7
2017-Mar-16 00:29N 50°39' E 001°29'7 7.1
2017-Mar-15 23:33N 50°44' E 001°35'33 4.6
2017-Mar-15 16:18N 50°30' E 000°47'8 1.6
2017-Mar-15 11:30N 50°37' E 000°41'1 0.9
2017-Mar-15 10:27N 50°36' E 000°42'  
2017-Mar-13 00:33N 50°43' E 001°31'  
Track history (hours):
 
Tides and Currents Weather Stations Pressure Air Temp Water Temp Dewpoint Dewpoint Depression Visibility Wind Speed Wind Dir Waves Ship Positions

Sch-135 Galibier

Last reported at 2017-Mar-22 22:22 UTC. Time now 2017-Mar-23 10:23 UTC.
Position N 50°07' E 000°13'.

Length 35 m; draft 4.2 m.

Type: Fishing. MMSI: 244630637.

Date/timePositionNaut miles runAvg speedWind from/ knotsBaromVisibWave heightAir tempDewpointWater temp
2017-Mar-22 22:22N 50°07' E 000°13'5 6.1
2017-Mar-22 21:34N 50°04' E 000°07'6 6.3
2017-Mar-22 20:33N 50°00' W 000°01'7 6.7
2017-Mar-22 19:33N 49°56' W 000°10'7 6.9
2017-Mar-22 18:34N 49°53' W 000°19'5 4.8
2017-Mar-22 17:34N 49°50' W 000°24'1 0.7
2017-Mar-22 16:34N 49°49' W 000°25'2 2.0
2017-Mar-22 15:33N 49°48' W 000°28'5 5.0
2017-Mar-22 14:33N 49°53' W 000°24'1 0.5
2017-Mar-22 13:33N 49°53' W 000°25'7 7.1
2017-Mar-22 12:33N 49°59' W 000°30'1 1.2
2017-Mar-22 11:34N 49°58' W 000°29'2 1.9
2017-Mar-22 10:33N 50°00' W 000°30'1 1.3
2017-Mar-22 09:33N 50°01' W 000°29'2 2.0
2017-Mar-22 08:33N 49°60' W 000°27'1 1.0
2017-Mar-22 07:33N 50°01' W 000°28'2 2.1
2017-Mar-22 06:34N 50°01' W 000°31'2 1.6
2017-Mar-22 05:34N 49°59' W 000°31'1 1.0
2017-Mar-22 04:34N 49°60' W 000°31'6 5.9
2017-Mar-22 03:33N 50°03' W 000°23'7 7.1
2017-Mar-22 02:34N 50°05' W 000°13'6 6.1
2017-Mar-22 01:33N 50°08' W 000°04'6 6.4
2017-Mar-22 00:34N 50°10' E 000°05'7 7.1
2017-Mar-21 23:32N 50°13' E 000°16'  
2017-Mar-16 20:20N 50°44' E 001°35'12 0.6
2017-Mar-16 01:08N 50°33' E 001°25'6 8.7
2017-Mar-16 00:29N 50°39' E 001°29'7 7.1
2017-Mar-15 23:33N 50°44' E 001°35'33 4.6
2017-Mar-15 16:18N 50°30' E 000°47'8 1.6
2017-Mar-15 11:30N 50°37' E 000°41'1 0.9
2017-Mar-15 10:27N 50°36' E 000°42'  
2017-Mar-13 00:33N 50°43' E 001°31'  

Dump ship's entire track history